Time;durP1;ratioP1;P1;durP2;ratioP2;P2;SDS_P1;SDS_P2;PMS_P1;PMS_P2;Temp;Humidity;BMP_temperature;BMP_pressure;BME280_temperature;BME280_humidity;BME280_pressure;Samples;Min_cycle;Max_cycle;Signal;HPM_P1;HPM_P2
2022/10/22 00:01:49;;;;;;;7.15;3.45;;;15.50;99.90;;;;;;5053488;28;20053;-47
2022/10/22 00:04:15;;;;;;;11.13;3.88;;;15.50;99.90;;;;;;5053182;28;20025;-48
2022/10/22 00:06:43;;;;;;;10.07;3.72;;;15.50;99.90;;;;;;5053167;28;20021;-48
2022/10/22 00:09:09;;;;;;;8.65;3.50;;;15.60;99.90;;;;;;5053299;28;20453;-53
2022/10/22 00:11:35;;;;;;;5.03;2.95;;;15.40;99.90;;;;;;5053290;28;20021;-50
2022/10/22 00:14:01;;;;;;;5.47;3.15;;;15.50;99.90;;;;;;5051368;28;20027;-46
2022/10/22 00:16:26;;;;;;;11.40;3.70;;;15.50;99.90;;;;;;5052153;28;20033;-48
2022/10/22 00:18:52;;;;;;;7.85;3.60;;;15.50;99.90;;;;;;5051607;28;20044;-50
2022/10/22 00:21:17;;;;;;;4.28;2.92;;;15.50;99.90;;;;;;5053175;28;20090;-50
2022/10/22 00:23:43;;;;;;;9.60;3.75;;;15.40;99.90;;;;;;5051302;28;20373;-47
2022/10/22 00:26:09;;;;;;;4.18;3.15;;;15.50;99.90;;;;;;5053013;28;20134;-53
2022/10/22 00:28:35;;;;;;;7.00;3.92;;;15.50;99.90;;;;;;5052913;28;20396;-51
2022/10/22 00:31:01;;;;;;;6.93;3.13;;;15.50;99.90;;;;;;5052877;28;20017;-49
2022/10/22 00:33:27;;;;;;;11.27;4.28;;;15.50;99.90;;;;;;5052521;28;20025;-51
2022/10/22 00:35:53;;;;;;;11.18;3.30;;;15.40;99.90;;;;;;5052466;28;20037;-48
2022/10/22 00:38:19;;;;;;;8.10;2.97;;;15.40;99.90;;;;;;5050804;28;20021;-49
2022/10/22 00:40:45;;;;;;;9.93;3.45;;;15.40;99.90;;;;;;5052578;28;20553;-51
2022/10/22 00:43:12;;;;;;;10.40;3.22;;;15.40;99.90;;;;;;5052234;28;20106;-47
2022/10/22 00:45:38;;;;;;;7.57;2.85;;;15.50;99.90;;;;;;5052471;28;20019;-49
2022/10/22 00:48:08;;;;;;;7.68;2.63;;;15.40;99.90;;;;;;5052373;28;20021;-48
2022/10/22 00:50:44;;;;;;;9.30;2.92;;;15.40;99.90;;;;;;5052566;28;20017;-49
2022/10/22 00:53:14;;;;;;;6.95;3.10;;;15.40;99.90;;;;;;5052115;28;20548;-50
2022/10/22 00:55:42;;;;;;;81.72;49.83;;;15.40;99.90;;;;;;5052306;28;20021;-53
2022/10/22 00:58:08;;;;;;;11.48;7.57;;;15.40;99.90;;;;;;5052331;28;20025;-48
2022/10/22 01:00:33;;;;;;;6.72;3.33;;;15.50;99.90;;;;;;5052105;28;20052;-48
2022/10/22 01:02:59;;;;;;;8.57;4.18;;;15.40;99.90;;;;;;5052008;28;20040;-47
2022/10/22 01:05:48;;;;;;;8.00;3.38;;;15.40;99.90;;;;;;5052275;28;20036;-48
2022/10/22 01:08:40;;;;;;;5.68;3.22;;;15.40;99.90;;;;;;5052257;28;20025;-49
2022/10/22 01:11:41;;;;;;;7.22;3.03;;;15.40;99.90;;;;;;5041004;28;20048;-48
2022/10/22 01:14:17;;;;;;;9.20;3.33;;;15.40;99.90;;;;;;5051519;28;20032;-48
2022/10/22 01:16:54;;;;;;;6.35;3.70;;;15.40;99.90;;;;;;5050625;28;20028;-50
2022/10/22 01:19:31;;;;;;;5.43;3.63;;;15.30;99.90;;;;;;5051655;28;20382;-50
2022/10/22 01:22:03;;;;;;;10.23;3.72;;;15.30;99.90;;;;;;5051550;28;20021;-47
2022/10/22 01:24:46;;;;;;;4.82;3.25;;;15.30;99.90;;;;;;5051765;28;20086;-51
2022/10/22 01:27:30;;;;;;;5.00;3.05;;;15.30;99.90;;;;;;5052230;28;20017;-48
2022/10/22 01:30:03;;;;;;;15.98;3.83;;;15.20;99.90;;;;;;5050751;28;20021;-46
2022/10/22 01:32:31;;;;;;;10.38;3.10;;;15.20;99.90;;;;;;5051594;28;20495;-47
2022/10/22 01:35:07;;;;;;;4.63;2.97;;;15.20;99.90;;;;;;5051733;28;20037;-47
2022/10/22 01:37:39;;;;;;;9.77;2.90;;;15.10;99.90;;;;;;5049905;28;20468;-48
2022/10/22 01:40:07;;;;;;;7.13;2.92;;;15.10;99.90;;;;;;5051853;28;20025;-51
2022/10/22 01:42:33;;;;;;;5.18;2.28;;;15.10;99.90;;;;;;5052758;28;20075;-46
2022/10/22 01:44:58;;;;;;;5.07;2.63;;;15.10;99.90;;;;;;5051476;28;20025;-48
2022/10/22 01:47:50;;;;;;;12.25;3.05;;;15.10;99.90;;;;;;5051212;28;20057;-49
2022/10/22 01:50:51;;;;;;;6.13;2.55;;;15.10;99.90;;;;;;5051166;28;20017;-50
2022/10/22 01:53:38;;;;;;;4.15;2.55;;;15.00;99.90;;;;;;5006737;28;20444;-49
2022/10/22 01:56:26;;;;;;;3.30;2.33;;;15.00;99.90;;;;;;5050351;28;20124;-48
2022/10/22 01:58:59;;;;;;;4.85;2.42;;;15.00;99.90;;;;;;5051144;28;20111;-47
2022/10/22 02:01:45;;;;;;;6.68;2.50;;;15.00;99.90;;;;;;5051078;28;20117;-47
2022/10/22 02:04:22;;;;;;;2.53;1.90;;;15.00;99.90;;;;;;5050659;28;20036;-51
2022/10/22 02:06:51;;;;;;;5.45;2.38;;;14.90;99.90;;;;;;5050722;28;20057;-49
2022/10/22 02:09:20;;;;;;;8.55;3.22;;;14.90;99.90;;;;;;5051198;28;20029;-46
2022/10/22 02:11:47;;;;;;;6.88;1.95;;;14.90;99.90;;;;;;5050746;28;20100;-50
2022/10/22 02:14:14;;;;;;;2.08;1.70;;;14.80;99.90;;;;;;5050460;28;20056;-47
2022/10/22 02:16:45;;;;;;;3.17;1.30;;;14.90;99.90;;;;;;5050677;28;20025;-46
2022/10/22 02:19:21;;;;;;;3.45;1.50;;;14.90;99.90;;;;;;5050727;28;20033;-47
2022/10/22 02:21:46;;;;;;;5.53;1.27;;;14.90;99.90;;;;;;5050886;28;20478;-48
2022/10/22 02:24:12;;;;;;;2.50;1.45;;;14.90;99.90;;;;;;5050461;28;20044;-50
2022/10/22 02:27:11;;;;;;;6.10;1.58;;;14.90;99.90;;;;;;5050442;28;20021;-47
2022/10/22 02:29:42;;;;;;;3.85;0.95;;;14.90;99.90;;;;;;5046019;28;20110;-48
2022/10/22 02:32:12;;;;;;;1.02;0.77;;;14.90;99.90;;;;;;5050294;28;20493;-50
2022/10/22 02:34:38;;;;;;;2.45;1.00;;;14.90;99.90;;;;;;5050737;28;20025;-47
2022/10/22 02:37:04;;;;;;;1.50;1.23;;;14.90;99.90;;;;;;5050581;28;20100;-46
2022/10/22 02:39:32;;;;;;;3.35;0.80;;;14.80;99.90;;;;;;5051707;28;20024;-47
2022/10/22 02:41:58;;;;;;;3.55;1.02;;;14.80;99.90;;;;;;5054104;28;20456;-47
2022/10/22 02:44:23;;;;;;;3.78;0.88;;;14.70;99.90;;;;;;5054366;28;20017;-50
2022/10/22 02:46:49;;;;;;;4.22;0.90;;;14.80;99.90;;;;;;5054548;28;20369;-48
2022/10/22 02:49:16;;;;;;;2.60;1.15;;;14.80;99.90;;;;;;5054430;28;20017;-49
2022/10/22 02:51:41;;;;;;;1.25;1.08;;;14.70;99.90;;;;;;5054283;28;20453;-49
2022/10/22 02:54:07;;;;;;;3.53;0.88;;;14.70;99.90;;;;;;5054024;28;20053;-51
2022/10/22 02:56:32;;;;;;;3.45;1.00;;;14.70;99.90;;;;;;5054147;28;20091;-47
2022/10/22 02:58:58;;;;;;;1.67;0.85;;;14.70;99.90;;;;;;5054158;28;20033;-47
2022/10/22 03:01:23;;;;;;;1.42;1.00;;;14.70;99.90;;;;;;5054067;28;20029;-49
2022/10/22 03:03:49;;;;;;;3.30;0.80;;;14.70;99.90;;;;;;5053873;28;20396;-47
2022/10/22 03:06:15;;;;;;;1.13;1.05;;;14.70;99.90;;;;;;5053919;28;20377;-46
2022/10/22 03:08:41;;;;;;;1.85;0.98;;;14.60;99.90;;;;;;5054116;28;20116;-47
2022/10/22 03:11:06;;;;;;;1.60;0.73;;;14.70;99.90;;;;;;5053943;28;20123;-47
2022/10/22 03:13:32;;;;;;;2.30;1.17;;;14.70;99.90;;;;;;5053714;28;20071;-47
2022/10/22 03:15:58;;;;;;;2.60;1.40;;;14.70;99.90;;;;;;5052479;28;20075;-47
2022/10/22 03:18:23;;;;;;;5.70;1.10;;;14.70;99.90;;;;;;5053904;28;20028;-52
2022/10/22 03:20:49;;;;;;;5.75;1.38;;;14.60;99.90;;;;;;5053827;28;20025;-52
2022/10/22 03:23:18;;;;;;;1.50;1.20;;;14.60;99.90;;;;;;5053527;28;20035;-47
2022/10/22 03:25:45;;;;;;;1.20;1.10;;;14.60;99.90;;;;;;5053726;28;20104;-47
2022/10/22 03:28:13;;;;;;;1.92;1.38;;;14.60;99.90;;;;;;5053701;28;20492;-49
2022/10/22 03:30:38;;;;;;;5.60;1.48;;;14.50;99.90;;;;;;5053582;28;20037;-48
2022/10/22 03:33:04;;;;;;;2.30;0.93;;;14.60;99.90;;;;;;5053394;28;20028;-47
2022/10/22 03:35:30;;;;;;;5.57;1.90;;;14.60;99.90;;;;;;5053519;28;20037;-51
2022/10/22 03:37:58;;;;;;;3.13;1.05;;;14.60;99.90;;;;;;5053117;28;20121;-50
2022/10/22 03:40:24;;;;;;;2.72;1.20;;;14.60;99.90;;;;;;5053377;28;20025;-48
2022/10/22 03:42:49;;;;;;;1.70;1.17;;;14.60;99.90;;;;;;5053046;28;20558;-49
2022/10/22 03:45:15;;;;;;;1.42;1.05;;;14.60;99.90;;;;;;5053339;28;20025;-50
2022/10/22 03:47:40;;;;;;;2.83;1.50;;;14.60;99.90;;;;;;5053294;28;20108;-48
2022/10/22 03:50:07;;;;;;;3.40;1.08;;;14.60;99.90;;;;;;5053136;28;20535;-51
2022/10/22 03:52:37;;;;;;;3.83;1.40;;;14.60;99.90;;;;;;5052961;28;20128;-48
2022/10/22 03:55:04;;;;;;;1.48;0.90;;;14.60;99.90;;;;;;5053104;28;20025;-46
2022/10/22 03:57:29;;;;;;;1.83;1.73;;;14.60;99.90;;;;;;5053006;28;20078;-50
2022/10/22 03:59:55;;;;;;;3.60;1.63;;;14.60;99.90;;;;;;5053247;28;20434;-47
2022/10/22 04:02:20;;;;;;;4.15;1.08;;;14.60;99.90;;;;;;5052601;28;20036;-51
2022/10/22 04:04:46;;;;;;;1.92;1.02;;;14.50;99.90;;;;;;5051571;28;20067;-49
2022/10/22 04:07:12;;;;;;;4.90;1.02;;;14.50;99.90;;;;;;5053143;28;20031;-49
2022/10/22 04:09:37;;;;;;;3.63;1.98;;;14.50;99.90;;;;;;5053141;28;20492;-48
2022/10/22 04:12:05;;;;;;;2.88;1.10;;;14.50;99.90;;;;;;5052572;28;20437;-47
2022/10/22 04:14:31;;;;;;;2.35;1.20;;;14.50;99.90;;;;;;5052638;28;20111;-48
2022/10/22 04:16:56;;;;;;;2.58;1.05;;;14.50;99.90;;;;;;5052704;28;20116;-46
2022/10/22 04:19:22;;;;;;;2.10;0.90;;;14.60;99.90;;;;;;5052831;28;20032;-48
2022/10/22 04:21:47;;;;;;;2.42;1.20;;;14.60;99.90;;;;;;5052591;28;20021;-50
2022/10/22 04:24:13;;;;;;;5.97;1.83;;;14.60;99.90;;;;;;5052386;28;20086;-48
2022/10/22 04:26:38;;;;;;;2.60;1.10;;;14.60;99.90;;;;;;5052630;28;20029;-48
2022/10/22 04:29:06;;;;;;;3.78;0.98;;;14.60;99.90;;;;;;5052661;28;20021;-49
2022/10/22 04:31:31;;;;;;;4.80;1.70;;;14.70;99.90;;;;;;5052463;28;20028;-47
2022/10/22 04:33:59;;;;;;;1.23;0.95;;;14.60;99.90;;;;;;5052460;28;20017;-49
2022/10/22 04:36:26;;;;;;;2.65;1.00;;;14.60;99.90;;;;;;5052607;28;20052;-48
2022/10/22 04:38:54;;;;;;;3.05;1.55;;;14.60;99.90;;;;;;5051836;28;20125;-48
2022/10/22 04:41:26;;;;;;;2.20;1.05;;;14.60;99.90;;;;;;5052422;28;20078;-48
2022/10/22 04:43:53;;;;;;;1.63;0.80;;;14.50;99.90;;;;;;5052030;28;20032;-47
2022/10/22 04:46:19;;;;;;;1.48;1.38;;;14.50;99.90;;;;;;5052353;28;20531;-51
2022/10/22 04:48:45;;;;;;;3.42;1.40;;;14.50;99.90;;;;;;5052225;28;20029;-48
2022/10/22 04:51:14;;;;;;;7.10;1.10;;;14.50;99.90;;;;;;5052311;28;20020;-49
2022/10/22 04:53:40;;;;;;;1.38;1.10;;;14.50;99.90;;;;;;5051963;28;20028;-50
2022/10/22 04:56:24;;;;;;;2.45;1.10;;;14.50;99.90;;;;;;5051886;28;20021;-50
2022/10/22 04:58:52;;;;;;;1.52;1.10;;;14.50;99.90;;;;;;5052179;28;20505;-50
2022/10/22 05:01:21;;;;;;;14.50;1.45;;;14.50;99.90;;;;;;5051758;28;20508;-49
2022/10/22 05:03:49;;;;;;;1.58;1.27;;;14.50;99.90;;;;;;5051503;28;20017;-48
2022/10/22 05:06:14;;;;;;;3.47;1.30;;;14.50;99.90;;;;;;5051807;28;20440;-49
2022/10/22 05:08:40;;;;;;;2.13;1.40;;;14.50;99.90;;;;;;5051931;28;20044;-50
2022/10/22 05:11:14;;;;;;;3.08;1.65;;;14.50;99.90;;;;;;5078088;22;20040;-50
2022/10/22 05:13:40;;;;;;;7.88;1.38;;;14.40;99.90;;;;;;5071161;28;20056;-51
2022/10/22 05:16:06;;;;;;;2.67;1.17;;;14.40;99.90;;;;;;5071828;28;20028;-46
2022/10/22 05:18:36;;;;;;;1.42;1.25;;;14.40;99.90;;;;;;5071835;28;20150;-45
2022/10/22 05:21:04;;;;;;;7.07;1.77;;;14.40;99.90;;;;;;5071864;28;20115;-44
2022/10/22 05:23:30;;;;;;;2.72;2.08;;;14.50;99.90;;;;;;5071433;28;20029;-45
2022/10/22 05:25:55;;;;;;;4.03;1.63;;;14.50;99.90;;;;;;5071691;28;20503;-44
2022/10/22 05:28:21;;;;;;;1.70;1.55;;;14.50;99.90;;;;;;5071698;28;20025;-46
2022/10/22 05:30:54;;;;;;;6.43;1.40;;;14.50;99.90;;;;;;5071835;28;20024;-46
2022/10/22 05:33:21;;;;;;;5.90;1.90;;;14.50;99.90;;;;;;5071629;28;20032;-46
2022/10/22 05:35:47;;;;;;;4.35;1.45;;;14.50;99.90;;;;;;5071651;28;20027;-47
2022/10/22 05:38:13;;;;;;;1.83;1.20;;;14.50;99.90;;;;;;5071446;28;20452;-48
2022/10/22 05:40:38;;;;;;;2.53;1.52;;;14.50;99.90;;;;;;5070316;28;20123;-46
2022/10/22 05:43:04;;;;;;;2.10;1.52;;;14.60;99.90;;;;;;5071434;28;20112;-50
2022/10/22 05:45:29;;;;;;;6.63;1.67;;;14.60;99.90;;;;;;5071688;28;20025;-47
2022/10/22 05:47:55;;;;;;;3.90;1.77;;;14.70;99.90;;;;;;5071563;28;20038;-48
2022/10/22 05:50:20;;;;;;;1.83;1.65;;;14.70;99.90;;;;;;5071586;28;20088;-48
2022/10/22 05:52:46;;;;;;;3.75;1.65;;;14.70;99.90;;;;;;5071043;28;20029;-50
2022/10/22 05:55:11;;;;;;;1.38;1.27;;;14.60;99.90;;;;;;5071218;28;20459;-46
2022/10/22 05:57:39;;;;;;;2.33;1.40;;;14.60;99.90;;;;;;5071420;28;20401;-44
2022/10/22 06:00:05;;;;;;;5.55;1.30;;;14.60;99.90;;;;;;5071404;28;20021;-49
2022/10/22 06:02:31;;;;;;;3.00;1.45;;;14.60;99.90;;;;;;5070874;28;20029;-45
2022/10/22 06:04:56;;;;;;;4.57;1.55;;;14.60;99.90;;;;;;5071363;28;20540;-48
2022/10/22 06:07:22;;;;;;;1.25;1.15;;;14.60;99.90;;;;;;5071438;28;20021;-47
2022/10/22 06:09:49;;;;;;;2.28;1.42;;;14.60;99.90;;;;;;5070046;28;20476;-47
2022/10/22 06:12:15;;;;;;;4.07;1.05;;;14.60;99.90;;;;;;5070871;28;20025;-47
2022/10/22 06:14:40;;;;;;;2.05;0.98;;;14.60;99.90;;;;;;5073173;28;20032;-50
2022/10/22 06:17:06;;;;;;;3.47;1.10;;;14.70;99.90;;;;;;5075529;28;20495;-50
2022/10/22 06:19:31;;;;;;;0.85;0.82;;;14.60;99.90;;;;;;5074136;28;20101;-51
2022/10/22 06:21:57;;;;;;;1.75;1.00;;;14.70;99.90;;;;;;5075131;28;20017;-46
2022/10/22 06:24:23;;;;;;;3.80;1.20;;;14.70;99.90;;;;;;5075252;28;20484;-48
2022/10/22 06:26:50;;;;;;;2.00;1.30;;;14.70;99.90;;;;;;5075219;28;20484;-43
2022/10/22 06:29:15;;;;;;;2.95;1.15;;;14.70;99.90;;;;;;5075800;28;20211;-49
2022/10/22 06:31:41;;;;;;;3.72;1.40;;;14.80;99.90;;;;;;5074343;28;20020;-53
2022/10/22 06:34:10;;;;;;;1.85;1.25;;;14.80;99.90;;;;;;5075233;28;20044;-49
2022/10/22 06:36:36;;;;;;;3.35;1.00;;;14.80;99.90;;;;;;5075163;28;20016;-43
2022/10/22 06:39:02;;;;;;;2.47;0.95;;;14.80;99.90;;;;;;5075231;28;20055;-44
2022/10/22 06:41:27;;;;;;;3.05;0.90;;;14.80;99.90;;;;;;5073674;28;20029;-51
2022/10/22 06:43:53;;;;;;;5.68;1.10;;;14.80;99.90;;;;;;5073438;28;20434;-48
2022/10/22 06:46:20;;;;;;;4.55;1.10;;;14.80;99.90;;;;;;5074289;28;20025;-50
2022/10/22 06:48:58;;;;;;;3.33;1.08;;;14.80;99.90;;;;;;5073544;28;20392;-48
2022/10/22 06:51:23;;;;;;;2.15;1.67;;;14.70;99.90;;;;;;5074780;28;20395;-52
2022/10/22 06:53:49;;;;;;;1.35;1.10;;;14.80;99.90;;;;;;5074323;28;20027;-55
2022/10/22 06:56:17;;;;;;;3.38;1.30;;;14.70;99.90;;;;;;5074778;28;20028;-49
2022/10/22 06:58:46;;;;;;;1.92;0.98;;;14.70;99.90;;;;;;5074683;28;20025;-49
2022/10/22 07:01:14;;;;;;;1.13;1.02;;;14.70;99.90;;;;;;5074482;28;20035;-45
2022/10/22 07:03:40;;;;;;;1.08;1.00;;;14.70;99.90;;;;;;5074149;28;20029;-54
2022/10/22 07:06:09;;;;;;;2.22;1.00;;;14.70;99.90;;;;;;5074588;28;20440;-54
2022/10/22 07:08:35;;;;;;;3.17;1.20;;;14.80;99.90;;;;;;5074936;28;20036;-55
2022/10/22 07:11:12;;;;;;;1.75;0.80;;;14.70;99.90;;;;;;5074724;28;20386;-50
2022/10/22 07:13:38;;;;;;;3.40;1.10;;;14.70;99.90;;;;;;5074562;28;20499;-51
2022/10/22 07:16:05;;;;;;;3.20;1.33;;;14.60;99.90;;;;;;5074653;28;20056;-56
2022/10/22 07:18:31;;;;;;;3.15;1.35;;;14.60;99.90;;;;;;5074556;28;20094;-56
2022/10/22 07:20:58;;;;;;;11.93;3.40;;;14.60;99.90;;;;;;5074537;28;20677;-47
2022/10/22 07:23:24;;;;;;;2.75;1.30;;;14.50;99.90;;;;;;5074210;28;20506;-50
2022/10/22 07:25:49;;;;;;;2.25;1.35;;;14.50;99.90;;;;;;5073817;28;20032;-49
2022/10/22 07:28:15;;;;;;;1.90;1.42;;;14.50;99.90;;;;;;5074205;28;20033;-49
2022/10/22 07:30:41;;;;;;;5.63;1.40;;;14.50;99.90;;;;;;5074105;28;20025;-47
2022/10/22 07:33:07;;;;;;;1.00;0.90;;;14.50;99.90;;;;;;5074000;28;20072;-49
2022/10/22 07:35:33;;;;;;;6.72;1.98;;;14.40;99.90;;;;;;5074230;28;20059;-47
2022/10/22 07:37:59;;;;;;;2.55;1.33;;;14.40;99.90;;;;;;5074205;28;20056;-47
2022/10/22 07:40:25;;;;;;;2.13;1.17;;;14.40;99.90;;;;;;5072954;28;20024;-47
2022/10/22 07:42:50;;;;;;;1.20;0.95;;;14.50;99.90;;;;;;5073694;28;20498;-49
2022/10/22 07:45:16;;;;;;;2.22;1.20;;;14.50;99.90;;;;;;5073889;28;20021;-49
2022/10/22 07:47:42;;;;;;;3.67;1.20;;;14.50;99.90;;;;;;5074084;28;20063;-43
2022/10/22 07:50:08;;;;;;;1.10;1.00;;;14.60;99.90;;;;;;5074304;28;20031;-54
2022/10/22 07:52:33;;;;;;;1.75;1.00;;;14.70;99.90;;;;;;5073705;28;20095;-47
2022/10/22 07:54:59;;;;;;;1.80;1.35;;;14.80;99.90;;;;;;5073833;28;20029;-48
2022/10/22 07:57:24;;;;;;;1.05;0.90;;;14.80;99.90;;;;;;5073789;28;20028;-50
2022/10/22 07:59:50;;;;;;;1.13;0.90;;;14.80;99.90;;;;;;5073642;28;20028;-53
2022/10/22 08:02:15;;;;;;;4.60;1.02;;;14.80;99.90;;;;;;5073541;28;20029;-47
2022/10/22 08:04:41;;;;;;;1.38;0.80;;;14.80;99.90;;;;;;5073687;28;20017;-49
2022/10/22 08:07:07;;;;;;;2.10;1.00;;;14.90;99.90;;;;;;5073613;28;20024;-51
2022/10/22 08:09:32;;;;;;;1.63;1.08;;;14.90;99.90;;;;;;5073529;28;20051;-49
2022/10/22 08:11:58;;;;;;;3.78;1.40;;;15.00;99.90;;;;;;5073148;28;20116;-50
2022/10/22 08:14:23;;;;;;;1.95;0.95;;;15.10;99.90;;;;;;5073455;28;20434;-49
2022/10/22 08:16:49;;;;;;;2.78;1.20;;;15.20;99.90;;;;;;5073360;28;20021;-52
2022/10/22 08:19:19;;;;;;;1.05;0.98;;;15.20;99.90;;;;;;5073325;28;20150;-49
2022/10/22 08:21:45;;;;;;;0.80;0.80;;;15.30;99.90;;;;;;5071696;28;20024;-50
2022/10/22 08:24:12;;;;;;;0.93;0.80;;;15.20;99.90;;;;;;5072914;28;20021;-49
2022/10/22 08:26:37;;;;;;;0.73;0.43;;;15.40;99.90;;;;;;5073277;28;20107;-46
2022/10/22 08:29:03;;;;;;;3.03;0.60;;;15.40;99.90;;;;;;5073211;28;20094;-54
2022/10/22 08:31:28;;;;;;;1.33;0.70;;;15.50;99.90;;;;;;5073000;28;20096;-51
2022/10/22 08:33:54;;;;;;;0.80;0.60;;;15.60;99.90;;;;;;5072692;28;20035;-55
2022/10/22 08:36:19;;;;;;;3.15;0.60;;;15.60;99.90;;;;;;5072245;28;20111;-50
2022/10/22 08:38:45;;;;;;;5.88;0.90;;;15.70;99.90;;;;;;5072532;28;20391;-45
2022/10/22 08:41:17;;;;;;;4.65;2.28;;;15.80;99.90;;;;;;5072795;28;20029;-51
2022/10/22 08:44:05;;;;;;;0.95;0.80;;;15.80;99.90;;;;;;5072244;28;20036;-52
2022/10/22 08:46:42;;;;;;;3.95;0.60;;;15.90;99.90;;;;;;5072552;28;20050;-51
2022/10/22 08:49:25;;;;;;;2.20;0.90;;;16.00;99.90;;;;;;5073021;28;20047;-48
2022/10/22 08:51:51;;;;;;;2.78;0.50;;;16.10;99.90;;;;;;5072480;28;20052;-52
2022/10/22 08:54:27;;;;;;;2.90;0.80;;;16.10;99.90;;;;;;5072699;28;20052;-52
2022/10/22 08:57:07;;;;;;;7.28;0.70;;;16.20;99.90;;;;;;5072649;28;20029;-51
2022/10/22 08:59:49;;;;;;;20.02;13.05;;;16.60;99.90;;;;;;5071692;28;20031;-48
2022/10/22 09:02:37;;;;;;;8.02;5.35;;;17.70;99.90;;;;;;5072369;28;20492;-47
2022/10/22 09:05:39;;;;;;;2.83;0.60;;;19.00;99.90;;;;;;5063855;28;20029;-45
2022/10/22 09:08:11;;;;;;;1.67;0.60;;;19.90;99.90;;;;;;5052600;28;20051;-46
2022/10/22 09:10:41;;;;;;;1.65;0.68;;;20.90;99.90;;;;;;5049694;28;20421;-50
2022/10/22 09:13:10;;;;;;;3.88;0.63;;;21.60;99.90;;;;;;5050083;28;20182;-49
2022/10/22 09:15:37;;;;;;;2.47;0.40;;;22.20;99.90;;;;;;5051463;28;20032;-51
2022/10/22 09:18:22;;;;;;;2.70;0.60;;;22.70;99.90;;;;;;5052059;28;20021;-50
2022/10/22 09:20:49;;;;;;;;;;;22.60;99.90;;;;;;5052382;28;20083;-47
2022/10/22 09:23:38;;;;;;;1.17;0.50;;;22.30;99.90;;;;;;5051616;28;19908;-48
2022/10/22 09:26:12;;;;;;;3.60;0.50;;;22.30;99.90;;;;;;5051766;28;20059;-45
2022/10/22 09:28:38;;;;;;;0.98;0.70;;;22.30;99.90;;;;;;5050940;28;20045;-47
2022/10/22 09:31:12;;;;;;;0.95;0.47;;;22.50;99.90;;;;;;5050611;28;20032;-47
2022/10/22 09:33:40;;;;;;;0.75;0.60;;;23.00;99.90;;;;;;5051710;28;20400;-49
2022/10/22 09:36:06;;;;;;;0.50;0.50;;;23.10;99.90;;;;;;5050755;28;20029;-48
2022/10/22 09:38:45;;;;;;;1.20;0.40;;;23.10;99.90;;;;;;5051872;28;20086;-48
2022/10/22 09:41:11;;;;;;;3.30;0.60;;;23.30;99.90;;;;;;5051680;28;20082;-47
2022/10/22 09:43:37;;;;;;;1.23;0.50;;;23.60;99.90;;;;;;5051305;28;20072;-51
2022/10/22 09:46:06;;;;;;;1.13;0.60;;;23.70;99.90;;;;;;5051492;28;20040;-48
2022/10/22 09:48:38;;;;;;;1.05;0.70;;;23.60;99.90;;;;;;5051687;28;20025;-50
2022/10/22 09:51:09;;;;;;;1.92;1.38;;;23.30;99.90;;;;;;5051878;28;20064;-44
2022/10/22 09:53:38;;;;;;;1.52;0.80;;;23.10;99.90;;;;;;5051492;28;20032;-44
2022/10/22 09:56:16;;;;;;;4.07;0.70;;;23.30;99.90;;;;;;5051884;28;20094;-47
2022/10/22 09:58:49;;;;;;;32.53;21.63;;;23.50;99.90;;;;;;5051698;28;20031;-48
2022/10/22 10:01:18;;;;;;;14.95;7.88;;;23.40;99.90;;;;;;5051633;28;20044;-50
2022/10/22 10:03:46;;;;;;;3.08;0.95;;;22.70;99.90;;;;;;5051441;28;20021;-43
2022/10/22 10:06:17;;;;;;;1.20;1.10;;;21.90;99.90;;;;;;5051769;28;20392;-44
2022/10/22 10:08:42;;;;;;;0.93;0.80;;;21.60;99.90;;;;;;5051904;28;20024;-51
2022/10/22 10:11:32;;;;;;;1.15;0.95;;;21.30;99.90;;;;;;5051770;28;20025;-47
2022/10/22 10:14:10;;;;;;;3.67;0.65;;;21.10;99.90;;;;;;5056378;28;20120;-46
2022/10/22 10:16:55;;;;;;;3.72;0.65;;;20.80;99.90;;;;;;5072293;28;20392;-45
2022/10/22 10:20:02;;;;;;;0.88;0.82;;;20.60;99.90;;;;;;5071630;28;20036;-44
2022/10/22 10:22:51;;;;;;;;;;;20.70;99.90;;;;;;5072048;28;20094;-48
2022/10/22 10:25:42;;;;;;;1.40;0.50;;;20.80;99.90;;;;;;5051709;28;20010;-49
2022/10/22 10:28:20;;;;;;;1.92;0.57;;;20.60;99.90;;;;;;5051903;28;20033;-52
2022/10/22 10:31:05;;;;;;;3.47;0.88;;;20.50;99.90;;;;;;5051533;28;20070;-54
2022/10/22 10:33:31;;;;;;;2.72;0.60;;;20.50;99.90;;;;;;5051389;28;20021;-48
2022/10/22 10:36:14;;;;;;;3.20;0.68;;;20.40;99.90;;;;;;5051253;28;20094;-50
2022/10/22 10:38:58;;;;;;;3.75;0.80;;;20.40;99.90;;;;;;5051412;28;20029;-44
2022/10/22 10:41:42;;;;;;;6.07;0.70;;;20.60;99.90;;;;;;5051435;28;20025;-54
2022/10/22 10:44:28;;;;;;;2.55;0.85;;;20.40;99.90;;;;;;5051110;28;20025;-51
2022/10/22 10:47:00;;;;;;;4.25;0.80;;;20.10;99.90;;;;;;5050983;28;20017;-48
2022/10/22 10:49:28;;;;;;;2.45;0.60;;;19.80;99.90;;;;;;5051459;28;20025;-48
2022/10/22 10:52:12;;;;;;;2.72;0.95;;;19.50;99.90;;;;;;5051193;28;20025;-46
2022/10/22 10:54:43;;;;;;;1.88;0.73;;;19.40;99.90;;;;;;5051290;28;20086;-49
2022/10/22 10:57:21;;;;;;;2.63;0.70;;;19.30;99.90;;;;;;5049410;28;20664;-52
2022/10/22 10:59:46;;;;;;;2.17;0.90;;;19.50;99.90;;;;;;5050120;28;20104;-47
2022/10/22 11:02:24;;;;;;;2.55;0.93;;;19.60;99.90;;;;;;5054394;28;20103;-47
2022/10/22 11:05:13;;;;;;;6.03;0.90;;;19.60;99.90;;;;;;5054701;28;20038;-50
2022/10/22 11:07:54;;;;;;;5.57;1.08;;;19.50;99.90;;;;;;5054864;28;20021;-47
2022/10/22 11:10:20;;;;;;;3.38;1.10;;;19.60;99.90;;;;;;5054658;28;20075;-50
2022/10/22 11:15:33;;;;;;;2.05;0.82;;;19.60;99.90;;;;;;5092544;22;20071;-49
2022/10/22 11:18:13;;;;;;;2.42;0.93;;;19.70;99.90;;;;;;5074223;28;20017;-46
2022/10/22 11:20:52;;;;;;;2.70;1.20;;;19.60;99.90;;;;;;5071848;28;20128;-49
2022/10/22 11:23:25;;;;;;;7.20;0.63;;;19.60;99.90;;;;;;5073374;28;20037;-48
2022/10/22 11:25:50;;;;;;;3.25;1.00;;;19.50;99.90;;;;;;5074357;28;20028;-46
2022/10/22 11:28:19;;;;;;;6.20;0.98;;;19.40;99.90;;;;;;5075030;28;20088;-46
2022/10/22 11:30:51;;;;;;;7.85;2.78;;;19.40;99.90;;;;;;5073889;28;20082;-50
2022/10/22 11:33:22;;;;;;;7.47;2.97;;;19.40;99.90;;;;;;5074407;28;20086;-44
2022/10/22 11:35:49;;;;;;;5.30;1.17;;;19.30;99.90;;;;;;5074912;28;20039;-46
2022/10/22 11:38:20;;;;;;;6.75;0.75;;;19.40;99.90;;;;;;5073769;28;20033;-45
2022/10/22 11:41:00;;;;;;;1.75;0.90;;;19.40;99.90;;;;;;5073992;28;20442;-45
2022/10/22 11:43:37;;;;;;;3.85;0.82;;;19.50;99.90;;;;;;5073801;28;20484;-45
2022/10/22 11:46:27;;;;;;;4.88;1.75;;;19.40;99.90;;;;;;5073886;28;20025;-47
2022/10/22 11:49:13;;;;;;;1.40;0.95;;;19.40;99.90;;;;;;5074388;28;20545;-48
2022/10/22 11:51:41;;;;;;;1.15;0.60;;;19.40;99.90;;;;;;5073821;28;20056;-46
2022/10/22 11:54:28;;;;;;;8.00;1.10;;;19.50;99.90;;;;;;5074002;28;20024;-46
2022/10/22 11:57:14;;;;;;;2.10;0.70;;;19.50;99.90;;;;;;5073942;28;20032;-48
2022/10/22 11:59:57;;;;;;;6.30;1.00;;;19.50;99.90;;;;;;5074203;28;20196;-45
2022/10/22 12:02:39;;;;;;;2.55;0.80;;;19.50;99.90;;;;;;5073438;28;20038;-46
2022/10/22 12:05:23;;;;;;;1.65;1.00;;;19.50;99.90;;;;;;5072794;28;20404;-41
2022/10/22 12:07:58;;;;;;;4.00;1.52;;;19.50;99.90;;;;;;5072503;28;20444;-44
2022/10/22 12:10:48;;;;;;;4.75;0.95;;;19.40;99.90;;;;;;5074005;28;20016;-49
2022/10/22 12:13:22;;;;;;;2.95;1.42;;;19.40;99.90;;;;;;5072306;28;20559;-42
2022/10/22 12:15:52;;;;;;;4.43;0.70;;;19.40;99.90;;;;;;5074112;28;20381;-42
2022/10/22 12:18:22;;;;;;;3.47;0.80;;;19.40;99.90;;;;;;5073685;28;20024;-42
2022/10/22 12:20:52;;;;;;;5.85;1.05;;;19.40;99.90;;;;;;5073694;28;20029;-41
2022/10/22 12:23:24;;;;;;;0.93;0.85;;;19.30;99.90;;;;;;5073776;28;20044;-44
2022/10/22 12:25:50;;;;;;;9.52;2.42;;;19.30;99.90;;;;;;5073823;28;20025;-44
2022/10/22 12:28:17;;;;;;;6.90;0.77;;;19.30;99.90;;;;;;5073492;28;20561;-45
2022/10/22 12:30:43;;;;;;;2.53;0.85;;;19.30;99.90;;;;;;5073553;28;20017;-45
2022/10/22 12:33:21;;;;;;;4.03;0.85;;;19.30;99.90;;;;;;5072915;28;20024;-43
2022/10/22 12:35:51;;;;;;;4.57;0.90;;;19.30;99.90;;;;;;5073304;28;20021;-46
2022/10/22 12:38:20;;;;;;;1.90;1.17;;;19.40;99.90;;;;;;5073288;28;20055;-45
2022/10/22 12:40:47;;;;;;;8.40;0.80;;;19.60;99.90;;;;;;5073366;28;20036;-43
2022/10/22 12:43:14;;;;;;;4.68;1.42;;;19.60;99.90;;;;;;5072563;28;20074;-46
2022/10/22 12:45:43;;;;;;;3.38;1.20;;;19.80;99.90;;;;;;5072909;28;20025;-45
2022/10/22 12:48:20;;;;;;;5.65;1.30;;;20.00;99.90;;;;;;5073142;28;20016;-43
2022/10/22 12:50:53;;;;;;;3.70;0.88;;;20.00;99.90;;;;;;5073521;28;20104;-44
2022/10/22 12:53:24;;;;;;;4.03;0.90;;;20.00;99.90;;;;;;5072512;28;20066;-46
2022/10/22 12:55:52;;;;;;;4.18;0.65;;;20.00;99.90;;;;;;5072928;28;20070;-43
2022/10/22 12:58:28;;;;;;;5.60;1.00;;;20.00;99.90;;;;;;5073325;28;20032;-43
2022/10/22 13:01:00;;;;;;;5.80;0.98;;;20.00;99.90;;;;;;5072862;28;20032;-47
2022/10/22 13:03:39;;;;;;;11.10;5.78;;;20.00;99.90;;;;;;5072296;28;20021;-44
2022/10/22 13:06:17;;;;;;;16.40;8.95;;;19.90;99.90;;;;;;5072745;28;20025;-44